Time;durP1;ratioP1;P1;durP2;ratioP2;P2;SDS_P1;SDS_P2;PMS_P1;PMS_P2;Temp;Humidity;BMP_temperature;BMP_pressure;BME280_temperature;BME280_humidity;BME280_pressure;Samples;Min_cycle;Max_cycle;Signal;HPM_P1;HPM_P2
2021/06/07 00:00:32;;;;;;;37.97;25.10;;;16.50;99.90;;;;;;5049451;28;20466;-70
2021/06/07 00:03:00;;;;;;;31.80;25.07;;;16.60;99.90;;;;;;5049435;28;20237;-70
2021/06/07 00:05:27;;;;;;;40.07;28.37;;;16.60;99.90;;;;;;5049715;28;20641;-70
2021/06/07 00:07:56;;;;;;;39.40;27.07;;;16.60;99.90;;;;;;5049672;28;20235;-70
2021/06/07 00:10:25;;;;;;;35.07;24.93;;;16.50;99.90;;;;;;5049445;28;20258;-70
2021/06/07 00:12:53;;;;;;;46.77;27.10;;;16.50;99.90;;;;;;5049094;28;20318;-70
2021/06/07 00:15:23;;;;;;;40.07;27.13;;;16.50;99.90;;;;;;5049678;28;20320;-70
2021/06/07 00:17:51;;;;;;;44.47;27.17;;;16.50;99.90;;;;;;5049173;28;20236;-70
2021/06/07 00:20:25;;;;;;;42.90;27.17;;;16.50;99.90;;;;;;5049454;28;20238;-70
2021/06/07 00:22:53;;;;;;;38.50;27.13;;;16.50;99.90;;;;;;5047840;28;20236;-70
2021/06/07 00:25:22;;;;;;;37.07;26.97;;;16.50;99.90;;;;;;5048968;28;20240;-70
2021/06/07 00:27:49;;;;;;;42.07;27.00;;;16.50;99.90;;;;;;5048759;28;20236;-70
2021/06/07 00:30:18;;;;;;;43.07;27.20;;;16.50;99.90;;;;;;5049179;28;20250;-70
2021/06/07 00:32:46;;;;;;;42.43;27.97;;;16.40;99.90;;;;;;5048497;28;20248;-70
2021/06/07 00:35:20;;;;;;;41.83;27.17;;;16.40;99.90;;;;;;5049362;28;20239;-70
2021/06/07 00:37:47;;;;;;;36.57;27.50;;;16.40;99.90;;;;;;5048224;28;20236;-70
2021/06/07 00:40:17;;;;;;;40.13;27.33;;;16.40;99.90;;;;;;5049062;28;20240;-70
2021/06/07 00:42:46;;;;;;;44.43;27.67;;;16.40;99.90;;;;;;5048502;28;20297;-70
2021/06/07 00:45:17;;;;;;;41.77;29.30;;;16.40;99.90;;;;;;5049019;28;20259;-70
2021/06/07 00:47:46;;;;;;;40.43;27.93;;;16.40;99.90;;;;;;5050273;28;20763;-70
2021/06/07 00:50:21;;;;;;;46.00;26.93;;;16.40;99.90;;;;;;5048456;28;20235;-70
2021/06/07 00:53:02;;;;;;;40.70;26.10;;;16.40;99.90;;;;;;5047959;28;20251;-70
2021/06/07 00:55:34;;;;;;;42.87;28.93;;;16.40;99.90;;;;;;5048390;28;20246;-70
2021/06/07 00:58:04;;;;;;;37.80;28.20;;;16.30;99.90;;;;;;5048129;28;20248;-70
2021/06/07 01:00:32;;;;;;;46.00;30.47;;;16.30;99.90;;;;;;5048130;28;20232;-70
2021/06/07 01:03:00;;;;;;;37.97;28.13;;;16.30;99.90;;;;;;5048119;28;20235;-70
2021/06/07 01:05:43;;;;;;;41.47;29.07;;;16.30;99.90;;;;;;5048727;28;20232;-70
2021/06/07 01:08:11;;;;;;;37.77;27.17;;;16.30;99.90;;;;;;5047951;28;20311;-70
2021/06/07 01:10:39;;;;;;;37.07;25.73;;;16.30;99.90;;;;;;5047924;28;20240;-70
2021/06/07 01:13:09;;;;;;;41.80;29.07;;;16.30;99.90;;;;;;5047560;28;20278;-70
2021/06/07 01:15:36;;;;;;;35.37;26.63;;;16.30;99.90;;;;;;5063414;28;20255;-70
2021/06/07 01:18:04;;;;;;;42.87;29.37;;;16.30;99.90;;;;;;5047587;28;20232;-70
2021/06/07 01:20:32;;;;;;;39.23;28.77;;;16.30;99.90;;;;;;5047997;28;20232;-70
2021/06/07 01:23:01;;;;;;;39.73;27.30;;;16.30;99.90;;;;;;5053967;28;20227;-70
2021/06/07 01:25:32;;;;;;;39.77;29.17;;;16.30;99.90;;;;;;5068019;28;20235;-70
2021/06/07 01:28:00;;;;;;;45.50;30.43;;;16.30;99.90;;;;;;5056528;28;20638;-70
2021/06/07 01:30:31;;;;;;;40.20;28.47;;;16.20;99.90;;;;;;5047874;28;20611;-70
2021/06/07 01:33:00;;;;;;;40.50;29.53;;;16.20;99.90;;;;;;5047603;28;20246;-70
2021/06/07 01:35:28;;;;;;;40.27;28.87;;;16.20;99.90;;;;;;5047894;28;20244;-70
2021/06/07 01:37:57;;;;;;;40.33;31.40;;;16.30;99.90;;;;;;5047630;28;20294;-70
2021/06/07 01:40:29;;;;;;;39.13;30.50;;;16.30;99.90;;;;;;5047405;28;20233;-70
2021/06/07 01:42:57;;;;;;;40.87;30.73;;;16.20;99.90;;;;;;5046350;28;20646;-70
2021/06/07 01:45:28;;;;;;;42.03;31.20;;;16.10;99.90;;;;;;5046684;28;20272;-70
2021/06/07 01:47:57;;;;;;;40.13;29.33;;;16.20;99.90;;;;;;5046419;28;20646;-70
2021/06/07 01:50:25;;;;;;;40.57;30.07;;;16.10;99.90;;;;;;5046562;28;20322;-70
2021/06/07 01:52:54;;;;;;;41.90;29.73;;;16.20;99.90;;;;;;5045778;28;20240;-70
2021/06/07 01:55:24;;;;;;;41.93;31.27;;;16.20;99.90;;;;;;5046322;28;20639;-70
2021/06/07 01:57:54;;;;;;;40.63;29.83;;;16.20;99.90;;;;;;5045900;28;20232;-70
2021/06/07 02:00:25;;;;;;;40.80;29.97;;;16.30;99.90;;;;;;5046006;28;20590;-70
2021/06/07 02:02:53;;;;;;;41.80;32.03;;;16.30;99.90;;;;;;5045781;28;20370;-69
2021/06/07 02:05:23;;;;;;;42.07;30.30;;;16.20;99.90;;;;;;5045770;28;20239;-70
2021/06/07 02:07:53;;;;;;;43.13;30.33;;;16.20;99.90;;;;;;5045767;28;20243;-70
2021/06/07 02:10:23;;;;;;;44.97;31.60;;;16.20;99.90;;;;;;5045789;28;20235;-70
2021/06/07 02:12:52;;;;;;;40.77;30.80;;;16.30;99.90;;;;;;5044649;28;20646;-70
2021/06/07 02:15:20;;;;;;;43.03;32.07;;;16.30;99.90;;;;;;5045295;28;20381;-70
2021/06/07 02:17:48;;;;;;;39.47;32.43;;;16.30;99.90;;;;;;5044050;28;20262;-70
2021/06/07 02:20:19;;;;;;;49.27;33.87;;;16.30;99.90;;;;;;5044929;28;20236;-70
2021/06/07 02:22:48;;;;;;;42.10;31.87;;;16.20;99.90;;;;;;5044653;28;20235;-70
2021/06/07 02:25:20;;;;;;;43.97;32.67;;;16.20;99.90;;;;;;5045249;28;20599;-70
2021/06/07 02:27:48;;;;;;;49.43;36.33;;;16.20;99.90;;;;;;5044201;28;20301;-70
2021/06/07 02:30:21;;;;;;;43.20;34.10;;;16.20;99.90;;;;;;5044726;28;20263;-70
2021/06/07 02:32:49;;;;;;;41.50;32.80;;;16.10;99.90;;;;;;5045632;28;20240;-70
2021/06/07 02:35:19;;;;;;;46.13;32.37;;;16.10;99.90;;;;;;5049248;28;20238;-70
2021/06/07 02:37:50;;;;;;;41.80;30.93;;;16.10;99.90;;;;;;5049044;28;20305;-70
2021/06/07 02:40:20;;;;;;;45.50;33.53;;;16.20;99.90;;;;;;5049817;28;20236;-70
2021/06/07 02:42:48;;;;;;;46.87;34.27;;;16.20;99.90;;;;;;5048650;28;20231;-70
2021/06/07 02:45:19;;;;;;;45.80;31.50;;;16.20;99.90;;;;;;5049764;28;20224;-70
2021/06/07 02:47:49;;;;;;;46.77;33.73;;;16.30;99.90;;;;;;5049106;28;20264;-70
2021/06/07 02:50:20;;;;;;;45.80;33.43;;;16.30;99.90;;;;;;5049051;28;20244;-70
2021/06/07 02:52:48;;;;;;;48.00;32.40;;;16.30;99.90;;;;;;5049135;28;20241;-70
2021/06/07 02:55:22;;;;;;;48.70;31.73;;;16.20;99.90;;;;;;5049314;28;20342;-70
2021/06/07 02:57:51;;;;;;;48.90;35.20;;;16.30;99.90;;;;;;5048849;28;20297;-70
2021/06/07 03:00:28;;;;;;;49.47;33.60;;;16.30;99.90;;;;;;5049151;28;20382;-70
2021/06/07 03:02:56;;;;;;;43.97;33.80;;;16.20;99.90;;;;;;5049387;28;20231;-70
2021/06/07 03:05:25;;;;;;;45.50;33.30;;;16.20;99.90;;;;;;5041539;28;20542;-70
2021/06/07 03:07:53;;;;;;;48.37;35.43;;;16.20;99.90;;;;;;5049223;28;20236;-70
2021/06/07 03:10:21;;;;;;;50.87;32.20;;;16.20;99.90;;;;;;5046040;28;99976;-70
2021/06/07 03:12:49;;;;;;;38.97;30.80;;;16.20;99.90;;;;;;5050267;28;20236;-70
2021/06/07 03:15:18;;;;;;;46.93;33.77;;;16.30;99.90;;;;;;5049007;28;20244;-70
2021/06/07 03:17:47;;;;;;;52.43;35.37;;;16.40;99.90;;;;;;5049638;28;20247;-70
2021/06/07 03:20:16;;;;;;;50.07;35.10;;;16.40;99.90;;;;;;5050004;28;20232;-70
2021/06/07 03:22:44;;;;;;;51.07;30.90;;;16.30;99.90;;;;;;5049309;28;20853;-70
2021/06/07 03:25:12;;;;;;;49.80;34.60;;;16.40;99.90;;;;;;5050378;28;20577;-70
2021/06/07 03:27:42;;;;;;;49.20;33.30;;;16.40;99.90;;;;;;5049508;28;20305;-70
2021/06/07 03:30:11;;;;;;;49.50;32.60;;;16.40;99.90;;;;;;5050103;28;20263;-70
2021/06/07 03:32:39;;;;;;;50.93;35.07;;;16.40;99.90;;;;;;5064367;28;20753;-70
2021/06/07 03:35:12;;;;;;;47.13;33.97;;;16.30;99.90;;;;;;5050230;28;20800;-70
2021/06/07 03:37:40;;;;;;;47.03;32.33;;;16.20;99.90;;;;;;5049342;28;20235;-70
2021/06/07 03:40:11;;;;;;;49.93;31.70;;;16.30;99.90;;;;;;5050012;28;20232;-70
2021/06/07 03:42:40;;;;;;;52.97;33.57;;;16.30;99.90;;;;;;5064458;28;20250;-70
2021/06/07 03:45:10;;;;;;;50.70;34.47;;;16.30;99.90;;;;;;5048924;28;20238;-70
2021/06/07 03:47:38;;;;;;;48.07;32.03;;;16.20;99.90;;;;;;5047522;28;20256;-70
2021/06/07 03:50:09;;;;;;;46.43;32.20;;;16.20;99.90;;;;;;5049431;28;20588;-70
2021/06/07 03:52:38;;;;;;;52.57;33.53;;;16.30;99.90;;;;;;5064092;28;20286;-70
2021/06/07 03:55:08;;;;;;;45.67;33.10;;;16.20;99.90;;;;;;5049409;28;20242;-70
2021/06/07 03:57:36;;;;;;;50.00;33.47;;;16.20;99.90;;;;;;5048656;28;20289;-70
2021/06/07 04:00:06;;;;;;;45.47;31.47;;;16.30;99.90;;;;;;5064315;28;20234;-70
2021/06/07 04:02:38;;;;;;;40.17;29.37;;;16.30;99.90;;;;;;5048597;28;20687;-70
2021/06/07 04:05:09;;;;;;;48.40;30.27;;;16.30;99.90;;;;;;5047859;28;20278;-70
2021/06/07 04:07:37;;;;;;;48.90;32.13;;;16.40;99.90;;;;;;5048690;28;20235;-70
2021/06/07 04:10:08;;;;;;;56.70;34.73;;;16.40;99.90;;;;;;5049293;28;20706;-70
2021/06/07 04:12:36;;;;;;;50.53;31.87;;;16.30;99.90;;;;;;5048309;28;20351;-70
2021/06/07 04:15:05;;;;;;;49.63;33.40;;;16.50;99.90;;;;;;5049542;28;20595;-70
2021/06/07 04:17:33;;;;;;;47.87;33.03;;;16.40;99.90;;;;;;5048541;28;20259;-70
2021/06/07 04:20:01;;;;;;;54.73;32.93;;;16.40;99.90;;;;;;5049317;28;20251;-70
2021/06/07 04:22:30;;;;;;;49.03;34.27;;;16.40;99.90;;;;;;5048394;28;20243;-70
2021/06/07 04:24:58;;;;;;;51.20;33.23;;;16.40;99.90;;;;;;5049211;28;20256;-70
2021/06/07 04:27:26;;;;;;;46.77;33.00;;;16.30;99.90;;;;;;5048964;28;20708;-70
2021/06/07 04:29:53;;;;;;;47.90;32.13;;;16.30;99.90;;;;;;5049274;28;20717;-70
2021/06/07 04:32:21;;;;;;;48.33;32.23;;;16.50;99.90;;;;;;5048217;28;20307;-70
2021/06/07 04:34:49;;;;;;;51.73;32.80;;;16.50;99.90;;;;;;5049154;28;20339;-70
2021/06/07 04:37:16;;;;;;;50.67;31.23;;;16.50;99.90;;;;;;5047571;28;20780;-70
2021/06/07 04:39:45;;;;;;;47.83;31.87;;;16.50;99.90;;;;;;5048798;28;20752;-70
2021/06/07 04:42:13;;;;;;;49.57;33.67;;;16.50;99.90;;;;;;5048292;28;20236;-70
2021/06/07 04:44:41;;;;;;;48.80;31.57;;;16.40;99.90;;;;;;5048524;28;20259;-70
2021/06/07 04:47:08;;;;;;;52.13;31.60;;;16.40;99.90;;;;;;5047847;28;20239;-70
2021/06/07 04:49:36;;;;;;;43.90;28.50;;;16.50;99.90;;;;;;5047451;28;20229;-70
2021/06/07 04:52:04;;;;;;;41.70;30.00;;;16.50;99.90;;;;;;5046558;28;20586;-70
2021/06/07 04:54:32;;;;;;;42.80;29.17;;;16.50;99.90;;;;;;5045860;28;20491;-70
2021/06/07 04:57:01;;;;;;;43.03;29.20;;;16.40;99.90;;;;;;5045861;28;20702;-70
2021/06/07 04:59:28;;;;;;;45.73;30.03;;;16.50;99.90;;;;;;5046237;28;20267;-70
2021/06/07 05:01:56;;;;;;;48.43;30.80;;;16.50;99.90;;;;;;5046484;28;20293;-70
2021/06/07 05:04:24;;;;;;;42.10;30.70;;;16.50;99.90;;;;;;5046363;28;20239;-70
2021/06/07 05:06:51;;;;;;;42.10;30.63;;;16.60;99.90;;;;;;5046466;28;20624;-70
2021/06/07 05:09:19;;;;;;;38.93;27.37;;;16.50;99.90;;;;;;5046346;28;20264;-70
2021/06/07 05:11:47;;;;;;;43.13;28.77;;;16.60;99.90;;;;;;5045779;28;20617;-70
2021/06/07 05:14:16;;;;;;;40.33;29.00;;;16.60;99.90;;;;;;5046159;28;20235;-70
2021/06/07 05:16:43;;;;;;;38.57;28.23;;;16.70;99.90;;;;;;5046178;28;20243;-70
2021/06/07 05:19:11;;;;;;;36.77;27.60;;;16.50;99.90;;;;;;5046136;28;20247;-70
2021/06/07 05:21:39;;;;;;;36.60;27.83;;;16.40;99.90;;;;;;5045009;28;20258;-70
2021/06/07 05:24:07;;;;;;;39.50;27.43;;;16.40;99.90;;;;;;5046789;28;20235;-70
2021/06/07 05:26:34;;;;;;;36.20;26.43;;;16.40;99.90;;;;;;5047809;28;20244;-70
2021/06/07 05:29:03;;;;;;;35.27;27.07;;;16.40;99.90;;;;;;5047264;28;20235;-70
2021/06/07 05:31:32;;;;;;;36.40;27.73;;;16.40;99.90;;;;;;5047258;28;20228;-70
2021/06/07 05:33:59;;;;;;;32.00;25.53;;;16.30;99.90;;;;;;5047014;28;20235;-70
2021/06/07 05:36:29;;;;;;;40.37;27.27;;;16.30;99.90;;;;;;5048282;28;20246;-70
2021/06/07 05:38:57;;;;;;;39.47;26.43;;;16.40;99.90;;;;;;5047591;28;20301;-70
2021/06/07 05:41:24;;;;;;;33.53;26.47;;;16.40;99.90;;;;;;5047724;28;20242;-70
2021/06/07 05:43:52;;;;;;;38.40;27.67;;;16.40;99.90;;;;;;5047194;28;20315;-70
2021/06/07 05:46:20;;;;;;;34.17;25.03;;;16.30;99.90;;;;;;5044560;28;20228;-70
2021/06/07 05:48:49;;;;;;;35.00;27.77;;;16.40;99.90;;;;;;5046871;28;20319;-70
2021/06/07 05:51:16;;;;;;;32.23;26.63;;;16.40;99.90;;;;;;5046643;28;20247;-70
2021/06/07 05:53:44;;;;;;;28.97;25.63;;;16.30;99.90;;;;;;5046771;28;20350;-70
2021/06/07 05:56:11;;;;;;;31.13;26.83;;;16.30;99.90;;;;;;5044561;28;20231;-70
2021/06/07 05:58:39;;;;;;;28.93;25.43;;;16.30;99.90;;;;;;5046327;28;20719;-70
2021/06/07 06:01:07;;;;;;;32.03;27.10;;;16.30;99.90;;;;;;5046721;28;20811;-69
2021/06/07 06:03:38;;;;;;;31.43;25.90;;;16.30;99.90;;;;;;5047381;28;20274;-70
2021/06/07 06:06:07;;;;;;;32.67;29.17;;;16.30;99.90;;;;;;5041998;28;20783;-70
2021/06/07 06:08:35;;;;;;;35.13;26.77;;;16.40;99.90;;;;;;5046484;28;20255;-71
2021/06/07 06:11:03;;;;;;;29.63;25.37;;;16.50;99.90;;;;;;5042882;28;20289;-70
2021/06/07 06:13:51;;;;;;;28.53;25.27;;;16.50;99.90;;;;;;5043969;28;20297;-70
2021/06/07 06:16:19;;;;;;;30.10;26.23;;;16.50;99.90;;;;;;5044811;28;20240;-71
2021/06/07 06:18:47;;;;;;;31.83;25.07;;;16.50;99.90;;;;;;5044743;28;20706;-70
2021/06/07 06:21:16;;;;;;;28.40;24.70;;;16.50;99.90;;;;;;5046245;28;20235;-71
2021/06/07 06:23:44;;;;;;;29.40;25.27;;;16.50;99.90;;;;;;5045831;28;20236;-70
2021/06/07 06:26:12;;;;;;;31.57;26.17;;;16.50;99.90;;;;;;5046706;28;20236;-71
2021/06/07 06:28:40;;;;;;;33.92;25.70;;;16.50;99.90;;;;;;5046903;28;20466;-69
2021/06/07 06:31:07;;;;;;;32.23;25.07;;;16.50;99.90;;;;;;5046579;28;20228;-71
2021/06/07 06:33:35;;;;;;;30.20;24.80;;;16.60;99.90;;;;;;5046848;28;20235;-71
2021/06/07 06:36:04;;;;;;;30.90;25.97;;;16.60;99.90;;;;;;5046644;28;20643;-71
2021/06/07 06:38:33;;;;;;;31.80;25.40;;;16.50;99.90;;;;;;5046871;28;20229;-71
2021/06/07 06:41:01;;;;;;;29.67;25.33;;;16.50;99.90;;;;;;5045546;28;20684;-71
2021/06/07 06:43:28;;;;;;;35.27;24.93;;;16.50;99.90;;;;;;5046301;28;20243;-70
2021/06/07 06:45:58;;;;;;;28.23;25.13;;;16.50;99.90;;;;;;5047056;28;20572;-70
2021/06/07 06:48:26;;;;;;;32.83;25.53;;;16.60;99.90;;;;;;5043426;28;20662;-70
2021/06/07 06:50:54;;;;;;;32.80;25.80;;;16.60;99.90;;;;;;5046406;28;20236;-71
2021/06/07 06:53:24;;;;;;;29.93;26.10;;;16.60;99.90;;;;;;5046710;28;20687;-71
2021/06/07 06:55:55;;;;;;;31.73;25.23;;;16.60;99.90;;;;;;5047155;28;20232;-71
2021/06/07 06:58:22;;;;;;;31.23;26.43;;;16.60;99.90;;;;;;5046352;28;20235;-70
2021/06/07 07:00:51;;;;;;;36.27;27.70;;;16.60;99.90;;;;;;5038553;28;20781;-70
2021/06/07 07:03:21;;;;;;;36.20;26.43;;;16.60;99.90;;;;;;5045714;28;20237;-71
2021/06/07 07:05:50;;;;;;;33.47;27.53;;;16.60;99.90;;;;;;5046061;28;20986;-71
2021/06/07 07:08:19;;;;;;;34.20;28.53;;;16.70;99.90;;;;;;5045680;28;20228;-71
2021/06/07 07:10:47;;;;;;;37.43;27.30;;;16.70;99.90;;;;;;5045979;28;20584;-71
2021/06/07 07:13:16;;;;;;;34.67;27.33;;;16.70;99.90;;;;;;5045907;28;20232;-71
2021/06/07 07:15:44;;;;;;;35.63;27.40;;;16.70;99.90;;;;;;5045943;28;20231;-71
2021/06/07 07:18:12;;;;;;;38.07;28.57;;;16.80;99.90;;;;;;5045750;28;20232;-71
2021/06/07 07:20:41;;;;;;;35.27;28.83;;;16.90;99.90;;;;;;5048237;28;20432;-71
2021/06/07 07:23:10;;;;;;;36.77;28.63;;;16.90;99.90;;;;;;5049759;28;20228;-68
2021/06/07 07:25:39;;;;;;;36.00;29.00;;;16.90;99.90;;;;;;5049131;28;20681;-68
2021/06/07 07:28:08;;;;;;;42.43;30.97;;;17.00;99.90;;;;;;5048290;28;20230;-68
2021/06/07 07:30:38;;;;;;;33.40;28.40;;;17.10;99.90;;;;;;5047240;28;20289;-68
2021/06/07 07:33:09;;;;;;;37.90;29.20;;;17.00;99.90;;;;;;5049558;28;20229;-68
2021/06/07 07:35:41;;;;;;;37.40;27.87;;;17.00;99.90;;;;;;5049825;28;20720;-68
2021/06/07 07:38:09;;;;;;;40.23;28.70;;;17.00;99.90;;;;;;5048733;28;20225;-68
2021/06/07 07:40:38;;;;;;;41.67;28.67;;;17.10;99.90;;;;;;5047869;28;20237;-68
2021/06/07 07:43:06;;;;;;;44.17;29.00;;;17.10;99.90;;;;;;5047568;28;20237;-68
2021/06/07 07:45:33;;;;;;;41.63;27.77;;;17.10;99.90;;;;;;5043006;28;20294;-68
2021/06/07 07:48:05;;;;;;;41.10;29.07;;;17.20;99.90;;;;;;5046798;28;20256;-68
2021/06/07 07:50:33;;;;;;;54.07;29.30;;;17.20;99.90;;;;;;5050132;28;20228;-68
2021/06/07 07:53:01;;;;;;;45.87;28.47;;;17.30;99.90;;;;;;5054100;28;20232;-68
2021/06/07 07:55:32;;;;;;;40.87;27.87;;;17.30;99.90;;;;;;5051400;28;20237;-68
2021/06/07 07:58:00;;;;;;;42.67;28.30;;;17.30;99.90;;;;;;5052060;28;20720;-68
2021/06/07 08:00:29;;;;;;;36.67;27.00;;;17.30;99.90;;;;;;5048982;28;20236;-68
2021/06/07 08:02:59;;;;;;;39.40;28.20;;;17.40;99.90;;;;;;5049061;28;20589;-68
2021/06/07 08:05:29;;;;;;;42.37;27.87;;;17.40;99.90;;;;;;5048115;28;20237;-68
2021/06/07 08:07:57;;;;;;;42.33;29.77;;;17.50;99.90;;;;;;5053937;28;20237;-68
2021/06/07 08:10:24;;;;;;;44.60;29.23;;;17.40;99.90;;;;;;5054153;28;20298;-68
2021/06/07 08:12:52;;;;;;;44.97;29.93;;;17.50;99.90;;;;;;5048473;28;20316;-68
2021/06/07 08:15:23;;;;;;;41.13;31.27;;;17.50;99.90;;;;;;5052294;28;20523;-68
2021/06/07 08:17:50;;;;;;;45.50;30.83;;;17.60;99.90;;;;;;5046592;28;20486;-68
2021/06/07 08:20:19;;;;;;;43.87;30.23;;;17.60;99.90;;;;;;5044354;28;20248;-68
2021/06/07 08:22:52;;;;;;;42.93;29.90;;;17.70;99.90;;;;;;5046521;28;20399;-68
2021/06/07 08:25:20;;;;;;;43.57;30.57;;;17.80;99.90;;;;;;5044630;28;20314;-68
2021/06/07 08:27:48;;;;;;;42.03;31.27;;;17.80;99.90;;;;;;5042930;28;20242;-68
2021/06/07 08:30:17;;;;;;;45.90;32.13;;;17.90;99.90;;;;;;5045522;28;20241;-68
2021/06/07 08:32:45;;;;;;;42.03;30.17;;;17.80;99.90;;;;;;5045104;28;20242;-68
2021/06/07 08:35:13;;;;;;;36.63;29.27;;;17.80;99.90;;;;;;5046577;28;20650;-68
2021/06/07 08:37:41;;;;;;;45.50;31.70;;;17.80;99.90;;;;;;5044189;28;20353;-68
2021/06/07 08:40:14;;;;;;;42.43;30.17;;;17.80;99.90;;;;;;5044226;28;20633;-68
2021/06/07 08:42:43;;;;;;;43.63;29.67;;;17.90;99.90;;;;;;5044123;28;20337;-68
2021/06/07 08:45:17;;;;;;;41.63;29.30;;;17.80;99.90;;;;;;5044113;28;20562;-68
2021/06/07 08:47:46;;;;;;;39.47;28.80;;;17.90;99.90;;;;;;5037229;28;20264;-68
2021/06/07 08:50:16;;;;;;;43.00;30.33;;;17.90;99.90;;;;;;5040395;28;20653;-68
2021/06/07 08:52:44;;;;;;;40.33;30.03;;;17.80;99.90;;;;;;5041617;28;20245;-68
2021/06/07 08:55:16;;;;;;;43.33;29.67;;;17.80;99.90;;;;;;5046997;28;20762;-68
2021/06/07 08:57:45;;;;;;;38.73;29.47;;;17.80;99.90;;;;;;5050715;28;20339;-68
2021/06/07 09:00:16;;;;;;;36.77;28.10;;;17.70;99.90;;;;;;5046907;28;20241;-68
2021/06/07 09:02:44;;;;;;;39.53;29.63;;;17.70;99.90;;;;;;5048717;28;20250;-68
2021/06/07 09:05:12;;;;;;;43.20;30.50;;;17.70;99.90;;;;;;5051914;28;20279;-68
2021/06/07 09:07:59;;;;;;;39.53;29.17;;;17.60;99.90;;;;;;5048055;28;20233;-68
2021/06/07 09:10:30;;;;;;;41.77;30.17;;;17.60;99.90;;;;;;5047398;28;20234;-68
2021/06/07 09:13:00;;;;;;;39.67;30.00;;;17.60;99.90;;;;;;5050180;28;20272;-68
2021/06/07 09:15:32;;;;;;;39.97;27.67;;;17.60;99.90;;;;;;5041726;28;20249;-68
2021/06/07 09:18:01;;;;;;;35.40;26.87;;;17.60;99.90;;;;;;5046979;28;20712;-68
2021/06/07 09:20:30;;;;;;;33.90;26.07;;;17.60;99.90;;;;;;5047451;28;20604;-68
2021/06/07 09:22:58;;;;;;;33.33;25.87;;;17.60;99.90;;;;;;5055875;28;20264;-68
2021/06/07 09:25:30;;;;;;;33.13;24.83;;;17.60;99.90;;;;;;5052035;28;20233;-68
2021/06/07 09:28:13;;;;;;;28.10;23.40;;;17.60;99.90;;;;;;5052449;28;20573;-68
2021/06/07 09:30:44;;;;;;;28.73;23.60;;;17.60;99.90;;;;;;5047533;28;20249;-68
2021/06/07 09:33:30;;;;;;;28.47;23.07;;;17.50;99.90;;;;;;5045834;28;20234;-68
2021/06/07 09:36:17;;;;;;;27.63;22.23;;;17.40;99.90;;;;;;5045614;28;20270;-68
2021/06/07 09:39:09;;;;;;;26.73;23.50;;;17.50;99.90;;;;;;5045828;28;20314;-68
2021/06/07 09:42:05;;;;;;;26.90;22.23;;;17.50;99.90;;;;;;5045981;28;20767;-68
2021/06/07 09:44:39;;;;;;;28.60;22.40;;;17.60;99.90;;;;;;5047033;28;20265;-68
2021/06/07 09:47:19;;;;;;;24.77;21.60;;;17.50;99.90;;;;;;5045689;28;20771;-68
2021/06/07 09:49:51;;;;;;;27.37;22.27;;;17.60;99.90;;;;;;5042608;28;20780;-68
2021/06/07 09:52:23;;;;;;;23.47;20.97;;;17.50;99.90;;;;;;5050183;28;20240;-69
2021/06/07 09:55:10;;;;;;;24.97;19.77;;;17.50;99.90;;;;;;5055906;28;20237;-68
2021/06/07 09:57:46;;;;;;;24.00;21.43;;;17.60;99.90;;;;;;5050477;28;20236;-68
2021/06/07 10:00:32;;;;;;;27.13;22.20;;;17.60;99.90;;;;;;5049200;28;20589;-68
2021/06/07 10:03:17;;;;;;;24.10;21.50;;;17.50;99.90;;;;;;5052421;28;20776;-68
2021/06/07 10:05:45;;;;;;;24.57;20.90;;;17.50;99.90;;;;;;5047773;28;20261;-68
2021/06/07 10:08:13;;;;;;;24.40;20.77;;;17.60;99.90;;;;;;5043112;28;20831;-68
2021/06/07 10:10:43;;;;;;;25.70;22.83;;;17.60;99.90;;;;;;5050108;28;20452;-68
2021/06/07 10:13:13;;;;;;;24.50;21.10;;;17.60;99.90;;;;;;5043703;28;20233;-68
2021/06/07 10:15:42;;;;;;;25.20;20.87;;;17.60;99.90;;;;;;5040785;28;20244;-68
2021/06/07 10:18:12;;;;;;;24.70;21.53;;;17.60;99.90;;;;;;5044304;28;20479;-68
2021/06/07 10:20:52;;;;;;;26.40;20.80;;;17.70;99.90;;;;;;5042616;28;20725;-69
2021/06/07 10:23:22;;;;;;;28.97;22.43;;;17.80;99.90;;;;;;5044575;28;20336;-68
2021/06/07 10:25:52;;;;;;;24.87;21.37;;;17.80;99.90;;;;;;5044245;28;20233;-68
2021/06/07 10:28:26;;;;;;;23.03;20.53;;;17.80;99.90;;;;;;5046022;28;20634;-68
2021/06/07 10:30:56;;;;;;;24.30;19.73;;;17.70;99.90;;;;;;5041104;28;20243;-68
2021/06/07 10:33:29;;;;;;;22.53;19.97;;;17.60;99.90;;;;;;5045931;28;20261;-68
2021/06/07 10:35:59;;;;;;;26.07;20.50;;;17.60;99.90;;;;;;5046420;28;20601;-68
2021/06/07 10:38:34;;;;;;;25.63;21.00;;;17.60;99.90;;;;;;5047223;28;20237;-69
2021/06/07 10:41:20;;;;;;;24.77;21.97;;;17.60;99.90;;;;;;5046945;28;20244;-68
2021/06/07 10:43:51;;;;;;;25.40;20.97;;;17.50;99.90;;;;;;5044503;28;20291;-68
2021/06/07 10:46:27;;;;;;;22.70;20.30;;;17.60;99.90;;;;;;5044098;28;20574;-68
2021/06/07 10:48:56;;;;;;;24.20;20.80;;;17.50;99.90;;;;;;5051186;28;20504;-68
2021/06/07 10:51:26;;;;;;;24.50;20.57;;;17.60;99.90;;;;;;5042289;28;20316;-68
2021/06/07 10:53:54;;;;;;;23.60;21.03;;;17.70;99.90;;;;;;5044142;28;20349;-68
2021/06/07 10:56:27;;;;;;;23.87;21.37;;;17.70;99.90;;;;;;5048500;28;20779;-69
2021/06/07 10:58:59;;;;;;;25.03;22.33;;;17.70;99.90;;;;;;5050111;28;20656;-68
2021/06/07 11:01:47;;;;;;;26.07;21.93;;;17.80;99.90;;;;;;5049306;28;20294;-68
2021/06/07 11:04:34;;;;;;;26.57;22.60;;;17.80;99.90;;;;;;5045538;28;20229;-69
2021/06/07 11:07:09;;;;;;;26.97;22.97;;;17.80;99.90;;;;;;5048727;28;20237;-68
2021/06/07 11:09:56;;;;;;;25.70;21.77;;;17.80;99.90;;;;;;5050288;28;20772;-68
2021/06/07 11:12:31;;;;;;;25.27;22.57;;;17.90;99.90;;;;;;5045047;28;20238;-68
2021/06/07 11:15:11;;;;;;;24.77;21.83;;;17.90;99.90;;;;;;5045286;28;20260;-68
2021/06/07 11:17:39;;;;;;;23.83;21.33;;;18.00;99.90;;;;;;5043090;28;20249;-68
2021/06/07 11:20:08;;;;;;;22.10;20.00;;;18.00;99.90;;;;;;5047462;28;20630;-68
2021/06/07 11:23:10;;;;;;;23.60;20.57;;;18.00;99.90;;;;;;5050506;28;20661;-68
2021/06/07 11:25:53;;;;;;;24.70;19.50;;;18.00;99.90;;;;;;5050381;28;20325;-68
2021/06/07 11:28:39;;;;;;;23.57;19.43;;;18.00;99.90;;;;;;5050018;28;20295;-69
2021/06/07 11:31:50;;;;;;;21.67;19.47;;;18.10;99.90;;;;;;5043884;28;20230;-71
2021/06/07 11:34:48;;;;;;;22.77;20.17;;;18.10;99.90;;;;;;5045946;28;20547;-71
2021/06/07 11:37:36;;;;;;;23.10;20.60;;;18.20;99.90;;;;;;5044568;28;20705;-71
2021/06/07 11:40:05;;;;;;;22.30;20.00;;;18.20;99.90;;;;;;5046128;28;20320;-71
2021/06/07 11:42:33;;;;;;;22.03;19.73;;;18.20;99.90;;;;;;5051670;28;20519;-71
2021/06/07 11:45:04;;;;;;;22.03;19.67;;;18.20;99.90;;;;;;5050723;28;20239;-71
2021/06/07 11:47:51;;;;;;;22.83;20.33;;;18.10;99.90;;;;;;5045564;28;20246;-70
2021/06/07 11:50:29;;;;;;;22.10;19.90;;;18.10;99.90;;;;;;5050264;28;20250;-70
2021/06/07 11:53:12;;;;;;;22.17;19.83;;;18.10;99.90;;;;;;5047614;28;20337;-71
2021/06/07 11:55:40;;;;;;;22.13;19.90;;;18.10;99.90;;;;;;5046154;28;20242;-71
2021/06/07 11:58:16;;;;;;;23.23;20.23;;;18.20;99.90;;;;;;5046755;28;20255;-71
2021/06/07 12:00:46;;;;;;;23.90;20.40;;;18.20;99.90;;;;;;5045290;28;20249;-71
2021/06/07 12:03:17;;;;;;;22.73;20.53;;;18.20;99.90;;;;;;5036246;28;20447;-71
2021/06/07 12:05:46;;;;;;;22.07;19.80;;;18.20;99.90;;;;;;5044402;28;20241;-71
2021/06/07 12:08:17;;;;;;;21.60;19.50;;;18.20;99.90;;;;;;5045482;28;20718;-71
2021/06/07 12:10:51;;;;;;;23.03;20.67;;;18.30;99.90;;;;;;5044069;28;20261;-71
2021/06/07 12:13:22;;;;;;;22.53;20.23;;;18.40;99.90;;;;;;5044989;28;20798;-71
2021/06/07 12:15:53;;;;;;;24.40;21.80;;;18.40;99.90;;;;;;5044505;28;20245;-71
2021/06/07 12:18:39;;;;;;;23.30;20.97;;;18.40;99.90;;;;;;5045002;28;20329;-71
2021/06/07 12:21:10;;;;;;;23.87;21.40;;;18.40;99.90;;;;;;5045770;28;20240;-71
2021/06/07 12:23:45;;;;;;;24.77;22.27;;;18.30;99.90;;;;;;5045508;28;20245;-71
2021/06/07 12:29:28;;;;;;;26.80;23.13;;;18.30;99.90;;;;;;5059824;28;20237;-71
2021/06/07 12:32:12;;;;;;;25.90;23.33;;;18.30;99.90;;;;;;5044868;28;20266;-71
2021/06/07 12:35:01;;;;;;;26.80;23.13;;;18.30;99.90;;;;;;5036253;28;20283;-71
2021/06/07 12:37:31;;;;;;;28.20;24.50;;;18.40;99.90;;;;;;5042788;28;20237;-71
2021/06/07 12:40:21;;;;;;;26.30;23.67;;;18.40;99.90;;;;;;5045022;28;20319;-71
2021/06/07 12:42:51;;;;;;;27.53;24.57;;;18.40;99.90;;;;;;5042543;28;20645;-70
2021/06/07 12:45:20;;;;;;;28.27;25.23;;;18.40;99.90;;;;;;5044230;28;20245;-71
2021/06/07 12:47:49;;;;;;;27.43;24.53;;;18.40;99.90;;;;;;5044086;28;20685;-71
2021/06/07 12:50:22;;;;;;;25.87;23.27;;;18.40;99.90;;;;;;5044028;28;20256;-70